createdAt,value
2019-04-05T00:00:11.956Z,26.13
2019-04-05T00:02:45.544Z,21.87
2019-04-05T00:05:17.604Z,25.90
2019-04-05T00:07:50.712Z,23.07
2019-04-05T00:10:23.906Z,21.97
2019-04-05T00:12:56.364Z,25.00
2019-04-05T00:15:28.604Z,20.10
2019-04-05T00:18:00.567Z,23.10
2019-04-05T00:20:33.057Z,18.87
2019-04-05T00:23:05.724Z,20.30
2019-04-05T00:25:38.822Z,23.17
2019-04-05T00:28:11.096Z,21.00
2019-04-05T00:30:42.946Z,24.80
2019-04-05T00:33:14.715Z,24.67
2019-04-05T00:35:46.766Z,20.07
2019-04-05T00:38:18.592Z,25.67
2019-04-05T00:40:50.595Z,22.93
2019-04-05T00:43:22.375Z,22.87
2019-04-05T00:45:54.614Z,24.03
2019-04-05T00:48:26.478Z,23.00
2019-04-05T00:50:58.316Z,23.73
2019-04-05T00:53:30.614Z,27.50
2019-04-05T00:56:02.464Z,24.10
2019-04-05T00:58:34.324Z,22.80
2019-04-05T01:01:06.384Z,21.37
2019-04-05T01:03:38.256Z,20.47
2019-04-05T01:06:10.355Z,23.33
2019-04-05T01:08:42.184Z,22.13
2019-04-05T01:11:14.244Z,22.30
2019-04-05T01:13:46.113Z,30.83
2019-04-05T01:16:18.276Z,25.63
2019-04-05T01:18:50.124Z,29.47
2019-04-05T01:21:22.404Z,28.73
2019-04-05T01:23:54.682Z,25.60
2019-04-05T01:26:26.677Z,30.07
2019-04-05T01:28:58.514Z,27.10
2019-04-05T01:31:31.479Z,24.43
2019-04-05T01:34:05.516Z,26.77
2019-04-05T01:36:37.542Z,24.07
2019-04-05T01:39:09.616Z,22.47
2019-04-05T01:41:41.488Z,22.43
2019-04-05T01:44:13.523Z,23.17
2019-04-05T01:46:45.514Z,26.10
2019-04-05T01:49:17.565Z,18.73
2019-04-05T01:51:49.394Z,23.93
2019-04-05T01:54:21.794Z,25.73
2019-04-05T01:56:53.772Z,24.47
2019-04-05T01:59:25.633Z,25.10
2019-04-05T02:01:57.594Z,19.47
2019-04-05T02:04:29.354Z,22.30
2019-04-05T02:07:01.303Z,23.33
2019-04-05T02:09:33.173Z,20.57
2019-04-05T02:12:05.034Z,21.47
2019-04-05T02:14:36.894Z,19.63
2019-04-05T02:17:08.824Z,22.03
2019-04-05T02:19:40.723Z,22.33
2019-04-05T02:22:14.307Z,23.73
2019-04-05T02:24:46.596Z,19.93
2019-04-05T02:27:18.436Z,18.13
2019-04-05T02:29:50.414Z,26.37
2019-04-05T02:32:22.365Z,21.07
2019-04-05T02:34:54.235Z,18.23
2019-04-05T02:37:26.396Z,25.60
2019-04-05T02:39:58.388Z,33.57
2019-04-05T02:42:30.937Z,30.40
2019-04-05T02:45:05.577Z,28.40
2019-04-05T02:47:37.735Z,23.80
2019-04-05T02:50:09.884Z,25.17
2019-04-05T02:52:42.264Z,21.37
2019-04-05T02:55:14.825Z,21.77
2019-04-05T02:57:47.124Z,19.37
2019-04-05T03:00:19.074Z,25.50
2019-04-05T03:02:51.035Z,23.77
2019-04-05T03:05:22.903Z,23.63
2019-04-05T03:07:54.755Z,24.27
2019-04-05T03:10:50.064Z,27.37
2019-04-05T03:13:22.992Z,21.97
2019-04-05T03:15:57.666Z,22.70
2019-04-05T03:18:29.858Z,23.27
2019-04-05T03:21:04.255Z,27.37
2019-04-05T03:23:39.669Z,19.60
2019-04-05T03:26:14.157Z,26.53
2019-04-05T03:28:47.425Z,42.10
2019-04-05T03:31:24.626Z,36.93
2019-04-05T03:33:53.501Z,25.60
2019-04-05T03:36:25.675Z,25.87
2019-04-05T03:38:57.833Z,19.30
2019-04-05T03:41:29.804Z,26.63
2019-04-05T03:44:01.758Z,19.50
2019-04-05T03:46:33.841Z,19.80
2019-04-05T03:49:05.856Z,27.97
2019-04-05T03:51:37.646Z,31.27
2019-04-05T03:54:09.604Z,29.57
2019-04-05T03:56:42.906Z,26.83
2019-04-05T03:59:14.965Z,28.90
2019-04-05T04:01:46.752Z,26.77
2019-04-05T04:04:18.895Z,23.77
2019-04-05T04:06:50.796Z,26.00
2019-04-05T04:09:22.726Z,22.93
2019-04-05T04:11:54.593Z,23.23
2019-04-05T04:14:26.622Z,19.30
2019-04-05T04:17:11.560Z,24.57
2019-04-05T04:19:32.615Z,20.33
2019-04-05T04:22:14.890Z,20.07
2019-04-05T04:24:47.034Z,22.47
2019-04-05T04:27:19.203Z,24.63
2019-04-05T04:29:51.627Z,26.97
2019-04-05T04:32:23.493Z,20.97
2019-04-05T04:34:55.684Z,22.23
2019-04-05T04:37:28.835Z,22.40
2019-04-05T04:40:00.859Z,21.80
2019-04-05T04:42:32.755Z,18.40
2019-04-05T04:45:12.104Z,21.43
2019-04-05T04:47:38.763Z,24.67
2019-04-05T04:50:10.723Z,20.23
2019-04-05T04:52:42.773Z,20.00
2019-04-05T04:55:14.804Z,21.67
2019-04-05T04:57:47.373Z,18.80
2019-04-05T05:00:19.482Z,31.53
2019-04-05T05:02:51.335Z,21.43
2019-04-05T05:05:23.625Z,24.10
2019-04-05T05:07:55.767Z,18.10
2019-04-05T05:10:27.842Z,17.53
2019-04-05T05:12:59.701Z,20.03
2019-04-05T05:15:31.765Z,20.33
2019-04-05T05:18:03.562Z,20.93
2019-04-05T05:20:35.684Z,19.87
2019-04-05T05:23:07.754Z,18.87
2019-04-05T05:25:42.489Z,19.40
2019-04-05T05:28:14.855Z,21.03
2019-04-05T05:30:46.824Z,22.87
2019-04-05T05:33:18.749Z,19.80
2019-04-05T05:35:50.934Z,23.30
2019-04-05T05:38:23.114Z,22.80
2019-04-05T05:40:55.086Z,28.60
2019-04-05T05:43:27.045Z,20.37
2019-04-05T05:45:59.095Z,25.80
2019-04-05T05:48:31.180Z,19.43
2019-04-05T05:51:03.504Z,23.00
2019-04-05T05:53:35.505Z,20.37
2019-04-05T05:56:07.565Z,19.53
2019-04-05T05:58:39.834Z,19.40
2019-04-05T06:01:11.907Z,16.07
2019-04-05T06:03:43.784Z,21.13
2019-04-05T06:06:15.953Z,28.93
2019-04-05T06:08:47.954Z,23.67
2019-04-05T06:11:19.855Z,17.27
2019-04-05T06:13:51.622Z,24.67
2019-04-05T06:16:23.794Z,22.40
2019-04-05T06:18:55.652Z,18.30
2019-04-05T06:21:27.910Z,24.10
2019-04-05T06:23:59.790Z,25.60
2019-04-05T06:26:32.544Z,17.73
2019-04-05T06:29:05.625Z,22.67
2019-04-05T06:31:38.104Z,23.00
2019-04-05T06:34:10.175Z,21.90
2019-04-05T06:36:42.443Z,22.97
2019-04-05T06:39:14.404Z,21.73
2019-04-05T06:41:46.604Z,18.33
2019-04-05T06:44:18.534Z,18.57
2019-04-05T06:46:50.606Z,27.30
2019-04-05T06:49:22.464Z,22.70
2019-04-05T06:51:54.432Z,15.97
2019-04-05T06:54:26.284Z,24.53
2019-04-05T06:56:58.344Z,24.20
2019-04-05T06:59:30.515Z,21.13
2019-04-05T07:02:02.602Z,21.77
2019-04-05T07:04:34.354Z,18.67
2019-04-05T07:07:06.231Z,21.40
2019-04-05T07:09:39.290Z,33.77
2019-04-05T07:12:11.246Z,17.93
2019-04-05T07:14:43.185Z,26.80
2019-04-05T07:17:15.087Z,23.20
2019-04-05T07:19:46.934Z,20.87
2019-04-05T07:22:32.183Z,24.30
2019-04-05T07:24:52.989Z,19.33
2019-04-05T07:27:25.414Z,24.07
2019-04-05T07:29:57.754Z,21.23
2019-04-05T07:32:31.260Z,20.93
2019-04-05T07:35:04.693Z,22.97
2019-04-05T07:37:36.614Z,24.43
2019-04-05T07:40:08.584Z,20.83
2019-04-05T07:42:40.794Z,19.50
2019-04-05T07:45:13.014Z,27.00
2019-04-05T07:47:44.954Z,23.10
2019-04-05T07:50:16.753Z,22.67
2019-04-05T07:52:48.895Z,29.53
2019-04-05T07:55:20.805Z,24.97
2019-04-05T07:57:53.944Z,27.33
2019-04-05T08:00:50.592Z,25.27
2019-04-05T08:03:22.664Z,20.73
2019-04-05T08:05:54.713Z,24.13
2019-04-05T08:08:32.935Z,21.07
2019-04-05T08:11:05.514Z,19.60
2019-04-05T08:13:37.774Z,18.80
2019-04-05T08:16:09.841Z,21.93
2019-04-05T08:18:41.825Z,23.47
2019-04-05T08:21:13.704Z,18.80
2019-04-05T08:23:45.724Z,23.33
2019-04-05T08:26:17.784Z,19.60
2019-04-05T08:28:51.495Z,22.07
2019-04-05T08:31:23.715Z,20.57
2019-04-05T08:33:55.544Z,25.83
2019-04-05T08:36:27.494Z,20.67
2019-04-05T08:38:59.457Z,23.27
2019-04-05T08:41:31.814Z,19.57
2019-04-05T08:44:03.864Z,16.73
2019-04-05T08:46:35.845Z,21.47
2019-04-05T08:49:11.073Z,15.47
2019-04-05T08:51:41.923Z,19.50
2019-04-05T08:54:15.225Z,23.07
2019-04-05T08:56:47.354Z,21.27
2019-04-05T08:59:19.354Z,18.07
2019-04-05T09:01:51.814Z,26.03
2019-04-05T09:04:24.294Z,24.53
2019-04-05T09:06:56.164Z,20.40
2019-04-05T09:09:29.244Z,20.93
2019-04-05T09:12:01.407Z,26.07
2019-04-05T09:14:33.445Z,20.93
2019-04-05T09:17:05.453Z,25.50
2019-04-05T09:19:37.514Z,21.37
2019-04-05T09:22:09.884Z,24.53
2019-04-05T09:24:41.734Z,23.80
2019-04-05T09:27:13.704Z,21.07
2019-04-05T09:29:46.044Z,22.43
2019-04-05T09:32:18.445Z,19.07
2019-04-05T09:34:50.274Z,24.10
2019-04-05T09:37:22.266Z,32.47
2019-04-05T09:39:54.232Z,19.77
2019-04-05T09:42:26.024Z,22.53
2019-04-05T09:44:58.172Z,19.47
2019-04-05T09:47:30.132Z,20.63
2019-04-05T09:50:03.616Z,19.50
2019-04-05T09:52:35.473Z,23.90
2019-04-05T09:55:07.304Z,20.63
2019-04-05T09:57:40.164Z,17.67
2019-04-05T10:00:17.819Z,22.80
2019-04-05T10:02:50.385Z,18.53
2019-04-05T10:05:22.555Z,22.07
2019-04-05T10:07:55.806Z,20.20
2019-04-05T10:10:28.139Z,21.17
2019-04-05T10:13:00.098Z,24.37
2019-04-05T10:15:32.044Z,16.50
2019-04-05T10:18:03.904Z,16.90
2019-04-05T10:20:38.962Z,22.23
2019-04-05T10:23:10.914Z,20.23
2019-04-05T10:25:44.116Z,19.07
2019-04-05T10:28:16.276Z,18.13
2019-04-05T10:30:51.976Z,18.53
2019-04-05T10:33:24.090Z,22.07
2019-04-05T10:35:56.443Z,18.57
2019-04-05T10:38:28.315Z,17.40
2019-04-05T10:41:00.487Z,19.80
2019-04-05T10:43:32.273Z,18.93
2019-04-05T10:46:04.904Z,17.50
2019-04-05T10:48:37.904Z,21.60
2019-04-05T10:51:10.894Z,20.23
2019-04-05T10:53:42.784Z,17.07
2019-04-05T10:56:14.754Z,16.83
2019-04-05T10:58:46.574Z,15.10
2019-04-05T11:01:18.515Z,16.20
2019-04-05T11:03:50.595Z,14.73
2019-04-05T11:06:22.665Z,21.93
2019-04-05T11:08:54.444Z,14.27
2019-04-05T11:11:26.684Z,20.23
2019-04-05T11:13:59.166Z,15.43
2019-04-05T11:16:31.334Z,19.30
2019-04-05T11:19:03.394Z,20.70
2019-04-05T11:21:35.477Z,18.43
2019-04-05T11:24:07.324Z,14.50
2019-04-05T11:26:39.504Z,14.63
2019-04-05T11:29:12.701Z,16.13
2019-04-05T11:31:56.406Z,20.27
2019-04-05T11:34:20.186Z,21.13
2019-04-05T11:36:52.155Z,16.53
2019-04-05T11:39:24.009Z,17.00
2019-04-05T11:41:56.202Z,13.13
2019-04-05T11:44:27.967Z,18.00
2019-04-05T11:47:00.315Z,17.67
2019-04-05T11:49:32.874Z,16.20
2019-04-05T11:52:05.155Z,16.50
2019-04-05T11:54:37.114Z,20.93
2019-04-05T11:57:09.074Z,18.10
2019-04-05T11:59:41.044Z,19.57
2019-04-05T12:02:17.814Z,16.03
2019-04-05T12:04:50.502Z,14.70
2019-04-05T12:07:26.279Z,19.97
2019-04-05T12:09:56.364Z,16.13
2019-04-05T12:12:28.656Z,16.77
2019-04-05T12:15:00.494Z,16.03
2019-04-05T12:17:35.069Z,13.70
2019-04-05T12:20:07.405Z,16.57
2019-04-05T12:22:39.504Z,17.80
2019-04-05T12:25:13.114Z,18.97
2019-04-05T12:27:44.954Z,18.77
2019-04-05T12:30:24.275Z,19.47
2019-04-05T12:32:56.625Z,19.70
2019-04-05T12:35:29.025Z,14.50
2019-04-05T12:38:01.064Z,14.73
2019-04-05T12:40:33.124Z,14.23
2019-04-05T12:43:06.122Z,15.07
2019-04-05T12:45:37.976Z,18.43
2019-04-05T12:48:09.824Z,16.17
2019-04-05T12:50:44.648Z,14.73
2019-04-05T12:53:15.704Z,13.60
2019-04-05T12:55:47.664Z,16.40
2019-04-05T12:58:19.735Z,11.63
2019-04-05T13:00:51.594Z,16.50
2019-04-05T13:03:23.570Z,15.93
2019-04-05T13:05:57.226Z,15.40
2019-04-05T13:08:29.844Z,13.57
2019-04-05T13:11:02.205Z,15.83
2019-04-05T13:13:34.585Z,15.67
2019-04-05T13:16:09.843Z,16.37
2019-04-05T13:18:40.295Z,13.07
2019-04-05T13:21:15.212Z,12.30
2019-04-05T13:23:46.114Z,16.43
2019-04-05T13:26:17.984Z,20.37
2019-04-05T13:28:49.814Z,14.30
2019-04-05T13:31:21.712Z,16.03
2019-04-05T13:33:55.645Z,16.67
2019-04-05T13:36:28.184Z,14.60
2019-04-05T13:39:00.600Z,15.27
2019-04-05T13:41:32.619Z,19.93
2019-04-05T13:44:04.857Z,15.83
2019-04-05T13:46:39.002Z,20.03
2019-04-05T13:49:11.020Z,16.33
2019-04-05T13:51:42.975Z,12.73
2019-04-05T13:54:15.306Z,17.27
2019-04-05T13:56:48.394Z,16.70
2019-04-05T13:59:20.454Z,14.87
2019-04-05T14:02:05.357Z,12.80
2019-04-05T14:04:29.667Z,15.37
2019-04-05T14:07:03.691Z,14.93
2019-04-05T14:09:35.482Z,13.67
2019-04-05T14:12:09.506Z,14.10
2019-04-05T14:14:42.162Z,14.03
2019-04-05T14:17:14.373Z,16.47
2019-04-05T14:19:48.615Z,17.60
2019-04-05T14:22:22.228Z,20.47
2019-04-05T14:24:56.670Z,17.30
2019-04-05T14:27:28.264Z,15.80
2019-04-05T14:30:02.636Z,17.87
2019-04-05T14:32:35.811Z,13.87
2019-04-05T14:35:10.058Z,17.50
2019-04-05T14:37:43.444Z,17.67
2019-04-05T14:40:15.822Z,21.40
2019-04-05T14:42:47.888Z,17.40
2019-04-05T14:45:20.081Z,16.50
2019-04-05T14:47:51.974Z,14.80
2019-04-05T14:50:24.284Z,14.43
2019-04-05T14:52:56.104Z,16.53
2019-04-05T14:55:29.822Z,16.07
2019-04-05T14:58:03.375Z,17.93
2019-04-05T15:00:36.125Z,19.30
2019-04-05T15:03:07.984Z,15.63
2019-04-05T15:05:39.945Z,15.33
2019-04-05T15:08:12.224Z,18.73
2019-04-05T15:10:44.484Z,16.43
2019-04-05T15:13:16.444Z,20.40
2019-04-05T15:15:48.821Z,20.30
2019-04-05T15:18:24.224Z,18.97
2019-04-05T15:20:55.004Z,17.43
2019-04-05T15:23:26.776Z,18.03
2019-04-05T15:25:58.914Z,19.03
2019-04-05T15:28:30.817Z,18.23
2019-04-05T15:31:03.208Z,19.37
2019-04-05T15:33:35.092Z,15.87
2019-04-05T15:36:07.845Z,24.50
2019-04-05T15:38:39.940Z,18.43
2019-04-05T15:41:12.180Z,17.17
2019-04-05T15:43:44.825Z,18.13
2019-04-05T15:46:16.974Z,19.13
2019-04-05T15:48:51.514Z,21.40
2019-04-05T15:51:24.887Z,19.37
2019-04-05T15:53:56.357Z,22.00
2019-04-05T15:56:28.518Z,23.87
2019-04-05T15:59:03.668Z,17.47
2019-04-05T16:01:34.912Z,20.67
2019-04-05T16:04:07.297Z,17.13
2019-04-05T16:06:39.324Z,23.67
2019-04-05T16:09:13.754Z,22.00
2019-04-05T16:11:46.084Z,15.90
2019-04-05T16:14:18.285Z,17.93
2019-04-05T16:16:50.575Z,21.57
2019-04-05T16:19:22.604Z,26.80
2019-04-05T16:21:54.413Z,17.43
2019-04-05T16:24:26.195Z,23.63
2019-04-05T16:26:58.317Z,24.27
2019-04-05T16:36:55.210Z,18.70
2019-04-05T16:39:27.680Z,18.33
2019-04-05T16:42:00.977Z,24.73
2019-04-05T16:44:33.185Z,28.23
2019-04-05T16:47:05.466Z,21.97
2019-04-05T16:49:37.677Z,23.10
2019-04-05T16:52:09.951Z,24.17
2019-04-05T16:54:41.908Z,18.63
2019-04-05T16:57:19.107Z,18.03
2019-04-05T16:59:57.094Z,19.30
2019-04-05T17:02:29.299Z,37.43
2019-04-05T17:05:01.232Z,34.83
2019-04-05T17:07:33.285Z,26.30
2019-04-05T17:10:05.978Z,24.47
2019-04-05T17:12:39.577Z,27.20
2019-04-05T17:15:11.643Z,18.80
2019-04-05T17:17:43.754Z,18.33
2019-04-05T17:20:15.985Z,26.37
2019-04-05T17:22:57.979Z,22.77
2019-04-05T17:25:21.648Z,24.03
2019-04-05T17:27:53.928Z,33.97
2019-04-05T17:30:25.982Z,32.73
2019-04-05T17:32:58.258Z,31.53
2019-04-05T17:35:30.424Z,23.17
2019-04-05T17:38:06.385Z,24.13
2019-04-05T17:40:38.732Z,24.30
2019-04-05T17:43:10.805Z,31.70
2019-04-05T17:45:42.762Z,32.13
2019-04-05T17:48:15.046Z,20.03
2019-04-05T17:50:47.319Z,26.43
2019-04-05T17:53:19.887Z,30.43
2019-04-05T17:55:51.952Z,30.57
2019-04-05T17:58:24.114Z,25.73
2019-04-05T18:00:56.084Z,25.97
2019-04-05T18:03:28.254Z,24.93
2019-04-05T18:06:00.272Z,29.47
2019-04-05T18:08:32.474Z,27.47
2019-04-05T18:11:05.066Z,41.17
2019-04-05T18:13:37.242Z,31.87
2019-04-05T18:16:09.405Z,35.67
2019-04-05T18:18:41.965Z,31.83
2019-04-05T18:21:13.944Z,34.60
2019-04-05T18:23:46.514Z,38.93
2019-04-05T18:26:18.364Z,37.47
2019-04-05T18:28:50.535Z,32.33
2019-04-05T18:31:22.422Z,30.63
2019-04-05T18:33:54.555Z,36.13
2019-04-05T18:36:26.524Z,35.43
2019-04-05T18:39:02.577Z,28.70
2019-04-05T18:41:36.794Z,24.53
2019-04-05T18:44:09.333Z,25.67
2019-04-05T18:46:41.337Z,29.43
2019-04-05T18:49:13.422Z,29.00
2019-04-05T18:51:45.365Z,32.70
2019-04-05T18:54:17.633Z,35.50
2019-04-05T18:56:49.495Z,31.57
2019-04-05T18:59:21.482Z,33.77
2019-04-05T19:01:53.626Z,34.40
2019-04-05T19:04:26.104Z,31.03
2019-04-05T19:06:58.164Z,29.77
2019-04-05T19:09:30.583Z,37.03
2019-04-05T19:12:02.844Z,36.43
2019-04-05T19:14:35.082Z,35.10
2019-04-05T19:17:07.265Z,32.87
2019-04-05T19:19:39.204Z,34.17
2019-04-05T19:22:11.174Z,32.37
2019-04-05T19:24:43.245Z,30.40
2019-04-05T19:27:15.297Z,42.83
2019-04-05T19:29:47.612Z,32.67
2019-04-05T19:50:27.634Z,37.20
2019-04-05T19:52:59.705Z,31.27
2019-04-05T19:55:31.878Z,37.43
2019-04-05T19:58:03.962Z,43.40
2019-04-05T20:00:35.894Z,48.00
2019-04-05T20:03:07.794Z,41.60
2019-04-05T20:05:39.699Z,35.70
2019-04-05T20:08:12.734Z,41.47
2019-04-05T20:10:44.884Z,36.33
2019-04-05T20:13:22.064Z,32.43
2019-04-05T20:15:54.224Z,35.50
2019-04-05T20:18:26.114Z,41.93
2019-04-05T20:20:58.152Z,32.20
2019-04-05T20:23:30.035Z,30.27
2019-04-05T20:26:02.184Z,34.27
2019-04-05T20:28:34.136Z,33.67
2019-04-05T20:31:06.024Z,32.87
2019-04-05T20:33:39.102Z,32.33
2019-04-05T20:36:11.054Z,34.23
2019-04-05T20:38:43.024Z,31.43
2019-04-05T20:41:20.844Z,33.67
2019-04-05T20:43:53.225Z,30.87
2019-04-05T20:46:25.074Z,29.53
2019-04-05T20:48:56.823Z,29.37
2019-04-05T20:51:28.644Z,23.77
2019-04-05T20:54:00.402Z,28.20
2019-04-05T20:56:32.264Z,23.90
2019-04-05T20:59:04.032Z,24.97
2019-04-05T21:01:35.903Z,28.93
2019-04-05T21:04:07.673Z,28.23
2019-04-05T21:06:39.782Z,30.10
2019-04-05T21:09:12.653Z,22.43
2019-04-05T21:11:44.804Z,24.43
2019-04-05T21:14:17.064Z,26.53
2019-04-05T21:16:49.093Z,22.63
2019-04-05T21:19:21.054Z,26.17
2019-04-05T21:21:52.952Z,23.97
2019-04-05T21:24:35.524Z,27.43
2019-04-05T21:26:58.900Z,25.83
2019-04-05T21:29:30.945Z,22.70
2019-04-05T21:32:03.104Z,25.77
2019-04-05T21:34:35.163Z,21.83
2019-04-05T21:37:07.398Z,21.63
2019-04-05T21:39:39.298Z,20.33
2019-04-05T21:42:15.617Z,22.00
2019-04-05T21:44:48.293Z,22.63
2019-04-05T21:47:20.334Z,21.60
2019-04-05T21:49:52.304Z,24.90
2019-04-05T21:52:24.474Z,28.90
2019-04-05T21:54:56.335Z,28.20
2019-04-05T21:57:28.411Z,21.13
2019-04-05T22:00:00.326Z,20.47
2019-04-05T22:02:32.212Z,25.83
2019-04-05T22:05:05.904Z,21.87
2019-04-05T22:07:37.995Z,18.37
2019-04-05T22:10:09.951Z,18.93
2019-04-05T22:12:42.128Z,21.77
2019-04-05T22:15:14.812Z,22.80
2019-04-05T22:17:46.897Z,26.00
2019-04-05T22:20:18.714Z,20.80
2019-04-05T22:22:50.664Z,19.90
2019-04-05T22:25:22.753Z,22.27
2019-04-05T22:27:54.717Z,17.27
2019-04-05T22:30:26.564Z,23.97
2019-04-05T22:32:58.491Z,23.23
2019-04-05T22:35:30.224Z,20.80
2019-04-05T22:38:02.266Z,19.67
2019-04-05T22:40:40.266Z,21.17
2019-04-05T22:43:13.544Z,19.90
2019-04-05T22:45:45.904Z,22.97
2019-04-05T22:48:18.104Z,17.33
2019-04-05T22:50:51.086Z,22.47
2019-04-05T22:53:23.045Z,24.20
2019-04-05T22:55:55.011Z,21.10
2019-04-05T22:58:27.304Z,18.77
2019-04-05T23:00:59.261Z,17.80
2019-04-05T23:03:31.514Z,29.60
2019-04-05T23:06:03.476Z,21.70
2019-04-05T23:08:35.942Z,21.30
2019-04-05T23:11:08.004Z,22.73
2019-04-05T23:13:40.174Z,21.17
2019-04-05T23:16:12.312Z,19.27
2019-04-05T23:18:44.202Z,21.00
2019-04-05T23:21:16.064Z,21.57
2019-04-05T23:23:48.039Z,25.20
2019-04-05T23:26:19.983Z,25.37
2019-04-05T23:28:51.915Z,19.20
2019-04-05T23:31:23.730Z,20.57
2019-04-05T23:33:56.076Z,19.87
2019-04-05T23:36:27.945Z,19.23
2019-04-05T23:39:00.474Z,23.17
2019-04-05T23:41:32.374Z,18.37
2019-04-05T23:44:05.579Z,21.00
2019-04-05T23:46:38.345Z,20.17
2019-04-05T23:49:10.414Z,17.27
2019-04-05T23:51:42.487Z,24.90
2019-04-05T23:54:14.554Z,24.20
2019-04-05T23:56:46.433Z,22.77
2019-04-05T23:59:18.373Z,26.93
